sensor_id;sensor_type;location;lat;lon;timestamp;pressure;altitude;pressure_sealevel;temperature;humidity
61710;BME280;73500;51.494;5.386;2024-03-02T00:02:13;99691.13;;;18.61;41.79
61710;BME280;73500;51.494;5.386;2024-03-02T00:04:39;99795.63;;;18.72;41.93
61710;BME280;73500;51.494;5.386;2024-03-02T00:07:06;99811.66;;;18.78;41.72
61710;BME280;73500;51.494;5.386;2024-03-02T00:09:31;99809.56;;;18.64;41.49
61710;BME280;73500;51.494;5.386;2024-03-02T00:11:56;99815.75;;;18.73;41.44
61710;BME280;73500;51.494;5.386;2024-03-02T00:14:22;99796.75;;;18.69;41.36
61710;BME280;73500;51.494;5.386;2024-03-02T00:16:49;99811.25;;;18.65;41.56
61710;BME280;73500;51.494;5.386;2024-03-02T00:19:16;99822.53;;;18.75;41.49
61710;BME280;73500;51.494;5.386;2024-03-02T00:21:41;99838.50;;;18.74;41.60
61710;BME280;73500;51.494;5.386;2024-03-02T00:24:17;99802.81;;;18.61;41.59
61710;BME280;73500;51.494;5.386;2024-03-02T00:26:45;99805.59;;;18.60;41.62
61710;BME280;73500;51.494;5.386;2024-03-02T00:29:12;99812.56;;;18.69;41.70
61710;BME280;73500;51.494;5.386;2024-03-02T00:31:40;99805.75;;;18.58;41.80
61710;BME280;73500;51.494;5.386;2024-03-02T00:34:06;99816.00;;;18.61;41.71
61710;BME280;73500;51.494;5.386;2024-03-02T00:36:31;99824.06;;;18.60;41.65
61710;BME280;73500;51.494;5.386;2024-03-02T00:38:56;99814.28;;;18.52;41.80
61710;BME280;73500;51.494;5.386;2024-03-02T00:41:24;99815.25;;;18.51;41.80
61710;BME280;73500;51.494;5.386;2024-03-02T00:44:00;99826.31;;;18.55;41.43
61710;BME280;73500;51.494;5.386;2024-03-02T00:46:36;99840.56;;;18.62;41.61
61710;BME280;73500;51.494;5.386;2024-03-02T00:49:04;99811.94;;;18.49;41.88
61710;BME280;73500;51.494;5.386;2024-03-02T00:51:32;99823.22;;;18.59;41.46
61710;BME280;73500;51.494;5.386;2024-03-02T00:54:00;99835.59;;;18.59;41.59
61710;BME280;73500;51.494;5.386;2024-03-02T00:56:26;99821.72;;;18.57;41.67
61710;BME280;73500;51.494;5.386;2024-03-02T00:58:52;99833.09;;;18.57;41.83
61710;BME280;73500;51.494;5.386;2024-03-02T01:01:18;99811.72;;;18.42;41.94
61710;BME280;73500;51.494;5.386;2024-03-02T01:03:45;99826.25;;;18.46;41.68
61710;BME280;73500;51.494;5.386;2024-03-02T01:06:10;99845.78;;;18.54;41.75
61710;BME280;73500;51.494;5.386;2024-03-02T01:08:35;99816.44;;;18.39;41.63
61710;BME280;73500;51.494;5.386;2024-03-02T01:11:01;99820.31;;;18.44;41.54
61710;BME280;73500;51.494;5.386;2024-03-02T01:13:27;99821.28;;;18.43;41.66
61710;BME280;73500;51.494;5.386;2024-03-02T01:15:52;99809.31;;;18.31;41.73
61710;BME280;73500;51.494;5.386;2024-03-02T01:18:18;99834.84;;;18.48;41.61
61710;BME280;73500;51.494;5.386;2024-03-02T01:20:44;99822.41;;;18.41;41.55
61710;BME280;73500;51.494;5.386;2024-03-02T01:23:09;99833.34;;;18.46;41.66
61710;BME280;73500;51.494;5.386;2024-03-02T01:25:34;99821.06;;;18.37;41.61
61710;BME280;73500;51.494;5.386;2024-03-02T01:28:00;99817.91;;;18.33;41.66
61710;BME280;73500;51.494;5.386;2024-03-02T01:30:26;99848.19;;;18.47;41.72
61710;BME280;73500;51.494;5.386;2024-03-02T01:32:51;99832.81;;;18.42;41.67
61710;BME280;73500;51.494;5.386;2024-03-02T01:35:16;99825.50;;;18.36;41.68
61710;BME280;73500;51.494;5.386;2024-03-02T01:37:42;99831.09;;;18.33;41.63
61710;BME280;73500;51.494;5.386;2024-03-02T01:40:07;99845.47;;;18.39;41.64
61710;BME280;73500;51.494;5.386;2024-03-02T01:42:38;99845.09;;;18.34;41.67
61710;BME280;73500;51.494;5.386;2024-03-02T01:45:08;99840.13;;;18.30;41.55
61710;BME280;73500;51.494;5.386;2024-03-02T01:47:34;99830.25;;;18.33;41.39
61710;BME280;73500;51.494;5.386;2024-03-02T01:49:59;99823.63;;;18.28;41.33
61710;BME280;73500;51.494;5.386;2024-03-02T01:52:25;99849.91;;;18.38;41.60
61710;BME280;73500;51.494;5.386;2024-03-02T01:54:50;99852.72;;;18.37;41.58
61710;BME280;73500;51.494;5.386;2024-03-02T01:57:16;99840.25;;;18.29;41.47
61710;BME280;73500;51.494;5.386;2024-03-02T01:59:42;99857.84;;;18.38;41.62
61710;BME280;73500;51.494;5.386;2024-03-02T02:02:07;99839.59;;;18.27;41.48
61710;BME280;73500;51.494;5.386;2024-03-02T02:04:33;99838.03;;;18.34;41.59
61710;BME280;73500;51.494;5.386;2024-03-02T02:06:59;99828.38;;;18.25;41.53
61710;BME280;73500;51.494;5.386;2024-03-02T02:09:24;99829.34;;;18.24;41.49
61710;BME280;73500;51.494;5.386;2024-03-02T02:11:50;99843.34;;;18.24;41.53
61710;BME280;73500;51.494;5.386;2024-03-02T02:14:16;99854.44;;;18.28;41.42
61710;BME280;73500;51.494;5.386;2024-03-02T02:16:41;99839.28;;;18.30;41.51
61710;BME280;73500;51.494;5.386;2024-03-02T02:19:07;99844.19;;;18.25;41.40
61710;BME280;73500;51.494;5.386;2024-03-02T02:21:33;99825.19;;;18.21;41.53
61710;BME280;73500;51.494;5.386;2024-03-02T02:23:58;99839.88;;;18.24;41.46
61710;BME280;73500;51.494;5.386;2024-03-02T02:26:23;99838.38;;;18.21;41.42
61710;BME280;73500;51.494;5.386;2024-03-02T02:28:49;99828.44;;;18.15;41.30
61710;BME280;73500;51.494;5.386;2024-03-02T02:31:15;99831.59;;;18.19;41.60
61710;BME280;73500;51.494;5.386;2024-03-02T02:33:41;99836.13;;;18.26;41.35
61710;BME280;73500;51.494;5.386;2024-03-02T02:36:07;99825.31;;;18.20;41.59
61710;BME280;73500;51.494;5.386;2024-03-02T02:38:35;99838.91;;;18.25;41.46
61710;BME280;73500;51.494;5.386;2024-03-02T02:41:02;99845.84;;;18.26;41.63
61710;BME280;73500;51.494;5.386;2024-03-02T02:43:27;99834.75;;;18.22;41.54
61710;BME280;73500;51.494;5.386;2024-03-02T02:45:52;99822.09;;;18.26;41.15
61710;BME280;73500;51.494;5.386;2024-03-02T02:48:18;99841.56;;;18.25;41.46
61710;BME280;73500;51.494;5.386;2024-03-02T02:50:43;99824.28;;;18.12;41.54
61710;BME280;73500;51.494;5.386;2024-03-02T02:53:08;99825.09;;;18.13;41.30
61710;BME280;73500;51.494;5.386;2024-03-02T02:55:35;99839.66;;;18.17;41.21
61710;BME280;73500;51.494;5.386;2024-03-02T02:58:03;99820.28;;;18.08;41.40
61710;BME280;73500;51.494;5.386;2024-03-02T03:00:28;99824.59;;;18.09;41.34
61710;BME280;73500;51.494;5.386;2024-03-02T03:02:53;99829.56;;;18.12;41.31
61710;BME280;73500;51.494;5.386;2024-03-02T03:05:19;99844.94;;;18.17;41.35
61710;BME280;73500;51.494;5.386;2024-03-02T03:07:44;99825.41;;;18.10;41.26
61710;BME280;73500;51.494;5.386;2024-03-02T03:10:10;99840.09;;;18.12;41.50
61710;BME280;73500;51.494;5.386;2024-03-02T03:12:35;99836.66;;;18.12;41.47
61710;BME280;73500;51.494;5.386;2024-03-02T03:15:01;99831.41;;;18.02;41.34
61710;BME280;73500;51.494;5.386;2024-03-02T03:17:28;99851.31;;;18.15;41.35
61710;BME280;73500;51.494;5.386;2024-03-02T03:19:53;99839.72;;;18.07;41.07
61710;BME280;73500;51.494;5.386;2024-03-02T03:22:19;99862.56;;;18.17;41.36
61710;BME280;73500;51.494;5.386;2024-03-02T03:24:45;99841.50;;;18.07;41.36
61710;BME280;73500;51.494;5.386;2024-03-02T03:27:10;99845.38;;;18.12;41.25
61710;BME280;73500;51.494;5.386;2024-03-02T03:29:38;99848.84;;;18.13;41.10
61710;BME280;73500;51.494;5.386;2024-03-02T03:32:04;99870.63;;;18.15;40.95
61710;BME280;73500;51.494;5.386;2024-03-02T03:34:35;99842.81;;;18.03;41.24
61710;BME280;73500;51.494;5.386;2024-03-02T03:37:00;99850.00;;;18.01;41.10
61710;BME280;73500;51.494;5.386;2024-03-02T03:39:25;99874.53;;;18.11;41.32
61710;BME280;73500;51.494;5.386;2024-03-02T03:41:51;99864.81;;;18.11;41.34
61710;BME280;73500;51.494;5.386;2024-03-02T03:44:16;99873.72;;;18.10;41.17
61710;BME280;73500;51.494;5.386;2024-03-02T03:46:41;99858.56;;;18.12;41.08
61710;BME280;73500;51.494;5.386;2024-03-02T03:49:07;99863.03;;;18.12;41.38
61710;BME280;73500;51.494;5.386;2024-03-02T03:51:33;99861.50;;;18.09;41.32
61710;BME280;73500;51.494;5.386;2024-03-02T03:53:58;99852.34;;;18.04;41.03
61710;BME280;73500;51.494;5.386;2024-03-02T03:56:24;99863.47;;;18.07;41.13
61710;BME280;73500;51.494;5.386;2024-03-02T03:58:49;99872.72;;;18.11;40.99
61710;BME280;73500;51.494;5.386;2024-03-02T04:01:14;99855.00;;;18.04;41.15
61710;BME280;73500;51.494;5.386;2024-03-02T04:03:40;99867.72;;;18.08;41.25
61710;BME280;73500;51.494;5.386;2024-03-02T04:06:05;99870.06;;;18.11;41.06
61710;BME280;73500;51.494;5.386;2024-03-02T04:08:30;99858.91;;;18.00;40.98
61710;BME280;73500;51.494;5.386;2024-03-02T04:10:56;99853.13;;;17.96;41.13
61710;BME280;73500;51.494;5.386;2024-03-02T04:13:21;99874.00;;;18.07;41.21
61710;BME280;73500;51.494;5.386;2024-03-02T04:15:46;99863.59;;;18.06;41.01
61710;BME280;73500;51.494;5.386;2024-03-02T04:18:12;99871.22;;;18.09;40.85
61710;BME280;73500;51.494;5.386;2024-03-02T04:20:37;99847.16;;;17.94;40.92
61710;BME280;73500;51.494;5.386;2024-03-02T04:23:02;99869.84;;;18.05;41.00
61710;BME280;73500;51.494;5.386;2024-03-02T04:25:28;99854.91;;;17.95;41.05
61710;BME280;73500;51.494;5.386;2024-03-02T04:27:53;99870.00;;;18.03;40.97
61710;BME280;73500;51.494;5.386;2024-03-02T04:30:18;99875.25;;;18.03;40.63
61710;BME280;73500;51.494;5.386;2024-03-02T04:32:44;99846.19;;;17.85;40.91
61710;BME280;73500;51.494;5.386;2024-03-02T04:35:12;99867.78;;;17.99;40.87
61710;BME280;73500;51.494;5.386;2024-03-02T04:37:37;99875.84;;;17.97;40.64
61710;BME280;73500;51.494;5.386;2024-03-02T04:40:03;99872.41;;;17.97;40.95
61710;BME280;73500;51.494;5.386;2024-03-02T04:42:29;99859.94;;;17.89;40.88
61710;BME280;73500;51.494;5.386;2024-03-02T04:44:54;99880.84;;;18.00;40.80
61710;BME280;73500;51.494;5.386;2024-03-02T04:47:19;99869.22;;;17.93;40.53
61710;BME280;73500;51.494;5.386;2024-03-02T04:49:45;99883.47;;;18.00;40.77
61710;BME280;73500;51.494;5.386;2024-03-02T04:52:10;99879.63;;;17.94;40.90
61710;BME280;73500;51.494;5.386;2024-03-02T04:54:36;99878.09;;;17.92;40.63
61710;BME280;73500;51.494;5.386;2024-03-02T04:57:21;99881.13;;;17.97;40.53
61710;BME280;73500;51.494;5.386;2024-03-02T04:59:46;99880.22;;;17.88;40.74
61710;BME280;73500;51.494;5.386;2024-03-02T05:02:11;99882.25;;;17.85;40.83
61710;BME280;73500;51.494;5.386;2024-03-02T05:04:39;99890.84;;;17.97;40.93
61710;BME280;73500;51.494;5.386;2024-03-02T05:07:04;99888.22;;;17.97;40.65
61710;BME280;73500;51.494;5.386;2024-03-02T05:09:30;99886.53;;;17.95;40.89
61710;BME280;73500;51.494;5.386;2024-03-02T05:11:55;99881.03;;;17.89;40.58
61710;BME280;73500;51.494;5.386;2024-03-02T05:14:55;99902.34;;;17.95;40.66
61710;BME280;73500;51.494;5.386;2024-03-02T05:17:20;99910.25;;;17.95;40.89
61710;BME280;73500;51.494;5.386;2024-03-02T05:19:45;99897.38;;;17.92;40.94
61710;BME280;73500;51.494;5.386;2024-03-02T05:22:10;99905.44;;;17.91;40.81
61710;BME280;73500;51.494;5.386;2024-03-02T05:24:36;99891.16;;;17.84;41.07
61710;BME280;73500;51.494;5.386;2024-03-02T05:27:02;99899.19;;;17.92;41.00
61710;BME280;73500;51.494;5.386;2024-03-02T05:29:27;99899.59;;;17.87;40.95
61710;BME280;73500;51.494;5.386;2024-03-02T05:31:52;99915.00;;;17.92;40.80
61710;BME280;73500;51.494;5.386;2024-03-02T05:34:17;99905.84;;;17.86;40.57
61710;BME280;73500;51.494;5.386;2024-03-02T05:36:43;99916.25;;;17.88;40.88
61710;BME280;73500;51.494;5.386;2024-03-02T05:39:09;99903.50;;;17.83;40.99
61710;BME280;73500;51.494;5.386;2024-03-02T05:41:35;99928.03;;;17.93;40.44
61710;BME280;73500;51.494;5.386;2024-03-02T05:44:01;99932.50;;;17.93;40.75
61710;BME280;73500;51.494;5.386;2024-03-02T05:46:27;99903.94;;;17.79;40.68
61710;BME280;73500;51.494;5.386;2024-03-02T05:48:52;99931.66;;;17.92;40.78
61710;BME280;73500;51.494;5.386;2024-03-02T05:51:17;99926.50;;;17.91;40.81
61710;BME280;73500;51.494;5.386;2024-03-02T05:53:43;99909.06;;;17.80;40.72
61710;BME280;73500;51.494;5.386;2024-03-02T05:56:08;99923.88;;;17.91;40.72
61710;BME280;73500;51.494;5.386;2024-03-02T05:58:34;99918.19;;;17.86;40.54
61710;BME280;73500;51.494;5.386;2024-03-02T06:01:23;99913.19;;;17.83;40.79
61710;BME280;73500;51.494;5.386;2024-03-02T06:03:54;99917.94;;;17.89;40.82
61710;BME280;73500;51.494;5.386;2024-03-02T06:06:19;99909.75;;;17.82;41.07
61710;BME280;73500;51.494;5.386;2024-03-02T06:08:46;99925.94;;;17.87;41.17
61710;BME280;73500;51.494;5.386;2024-03-02T06:11:11;99934.81;;;17.86;41.21
61710;BME280;73500;51.494;5.386;2024-03-02T06:13:36;99917.50;;;17.84;41.06
61710;BME280;73500;51.494;5.386;2024-03-02T06:16:01;99932.34;;;17.94;40.86
61710;BME280;73500;51.494;5.386;2024-03-02T06:18:27;99921.66;;;17.86;41.09
61710;BME280;73500;51.494;5.386;2024-03-02T06:20:53;99940.78;;;17.98;41.33
61710;BME280;73500;51.494;5.386;2024-03-02T06:23:18;99938.97;;;17.99;41.29
61710;BME280;73500;51.494;5.386;2024-03-02T06:25:43;99937.19;;;17.99;41.56
61710;BME280;73500;51.494;5.386;2024-03-02T06:28:09;99930.38;;;17.97;41.74
61710;BME280;73500;51.494;5.386;2024-03-02T06:30:34;99947.84;;;18.07;41.69
61710;BME280;73500;51.494;5.386;2024-03-02T06:33:00;99929.09;;;18.01;41.44
61710;BME280;73500;51.494;5.386;2024-03-02T06:35:25;99928.44;;;17.99;41.75
61710;BME280;73500;51.494;5.386;2024-03-02T06:37:50;99948.88;;;18.15;41.86
61710;BME280;73500;51.494;5.386;2024-03-02T06:40:16;99947.09;;;18.15;41.63
61710;BME280;73500;51.494;5.386;2024-03-02T06:42:41;99942.28;;;18.10;41.63
61710;BME280;73500;51.494;5.386;2024-03-02T06:45:06;99929.53;;;18.06;41.53
61710;BME280;73500;51.494;5.386;2024-03-02T06:47:32;99936.16;;;18.10;41.50
61710;BME280;73500;51.494;5.386;2024-03-02T06:49:57;99959.53;;;18.23;41.33
61710;BME280;73500;51.494;5.386;2024-03-02T06:52:24;99952.53;;;18.13;41.71
61710;BME280;73500;51.494;5.386;2024-03-02T06:54:49;99958.19;;;18.19;41.41
61710;BME280;73500;51.494;5.386;2024-03-02T06:57:14;99971.19;;;18.30;41.22
61710;BME280;73500;51.494;5.386;2024-03-02T06:59:41;99952.91;;;18.19;41.54
61710;BME280;73500;51.494;5.386;2024-03-02T07:02:06;99968.00;;;18.26;41.48
61710;BME280;73500;51.494;5.386;2024-03-02T07:04:34;99958.19;;;18.19;41.32
61710;BME280;73500;51.494;5.386;2024-03-02T07:06:59;99981.72;;;18.30;41.76
61710;BME280;73500;51.494;5.386;2024-03-02T07:09:24;99985.75;;;18.34;41.65
61710;BME280;73500;51.494;5.386;2024-03-02T07:11:50;99972.13;;;18.29;41.50
61710;BME280;73500;51.494;5.386;2024-03-02T07:14:16;99980.28;;;18.36;41.60
61710;BME280;73500;51.494;5.386;2024-03-02T07:16:41;99972.28;;;18.27;41.56
61710;BME280;73500;51.494;5.386;2024-03-02T07:19:08;99968.28;;;18.23;41.53
61710;BME280;73500;51.494;5.386;2024-03-02T07:21:33;99967.31;;;18.24;41.19
61710;BME280;73500;51.494;5.386;2024-03-02T07:23:59;99977.41;;;18.29;41.13
61710;BME280;73500;51.494;5.386;2024-03-02T07:26:25;99990.84;;;18.36;41.45
61710;BME280;73500;51.494;5.386;2024-03-02T07:28:51;99995.81;;;18.39;41.45
61710;BME280;73500;51.494;5.386;2024-03-02T07:31:16;99980.34;;;18.26;41.64
61710;BME280;73500;51.494;5.386;2024-03-02T07:33:44;99988.38;;;18.34;41.93
61710;BME280;73500;51.494;5.386;2024-03-02T07:36:09;99973.00;;;18.29;42.18
61710;BME280;73500;51.494;5.386;2024-03-02T07:38:34;99978.41;;;18.28;42.08
61710;BME280;73500;51.494;5.386;2024-03-02T07:41:00;99983.25;;;18.33;42.42
61710;BME280;73500;51.494;5.386;2024-03-02T07:43:26;99973.66;;;18.31;42.51
61710;BME280;73500;51.494;5.386;2024-03-02T07:45:51;99977.28;;;18.30;42.29
61710;BME280;73500;51.494;5.386;2024-03-02T07:48:17;99984.59;;;18.37;42.26
61710;BME280;73500;51.494;5.386;2024-03-02T07:50:43;99997.88;;;18.45;42.58
61710;BME280;73500;51.494;5.386;2024-03-02T07:53:08;99998.72;;;18.45;42.33
61710;BME280;73500;51.494;5.386;2024-03-02T07:55:34;99977.81;;;18.34;42.29
61710;BME280;73500;51.494;5.386;2024-03-02T07:58:00;100003.88;;;18.47;42.57
61710;BME280;73500;51.494;5.386;2024-03-02T08:00:26;99990.84;;;18.36;42.37
61710;BME280;73500;51.494;5.386;2024-03-02T08:02:52;99980.63;;;18.33;42.59
61710;BME280;73500;51.494;5.386;2024-03-02T08:05:18;99984.75;;;18.35;42.55
61710;BME280;73500;51.494;5.386;2024-03-02T08:07:46;100001.81;;;18.41;42.13
61710;BME280;73500;51.494;5.386;2024-03-02T08:10:12;100003.88;;;18.47;42.16
61710;BME280;73500;51.494;5.386;2024-03-02T08:12:38;99979.91;;;18.30;42.53
61710;BME280;73500;51.494;5.386;2024-03-02T08:15:03;100004.69;;;18.47;42.57
61710;BME280;73500;51.494;5.386;2024-03-02T08:17:29;99985.56;;;18.36;42.68
61710;BME280;73500;51.494;5.386;2024-03-02T08:19:55;99992.50;;;18.37;42.58
61710;BME280;73500;51.494;5.386;2024-03-02T08:22:21;99991.41;;;18.39;42.93
61710;BME280;73500;51.494;5.386;2024-03-02T08:24:46;99987.91;;;18.39;42.87
61710;BME280;73500;51.494;5.386;2024-03-02T08:27:12;99994.34;;;18.36;42.54
61710;BME280;73500;51.494;5.386;2024-03-02T08:29:37;99989.72;;;18.38;42.81
61710;BME280;73500;51.494;5.386;2024-03-02T08:32:03;99984.44;;;18.38;42.56
61710;BME280;73500;51.494;5.386;2024-03-02T08:34:29;100003.72;;;18.48;42.48
61710;BME280;73500;51.494;5.386;2024-03-02T08:36:54;99996.53;;;18.41;42.32
61710;BME280;73500;51.494;5.386;2024-03-02T08:39:19;99989.06;;;18.36;42.34
61710;BME280;73500;51.494;5.386;2024-03-02T08:41:46;100004.00;;;18.45;42.43
61710;BME280;73500;51.494;5.386;2024-03-02T08:44:12;100015.09;;;18.49;42.16
61710;BME280;73500;51.494;5.386;2024-03-02T08:46:38;100009.44;;;18.44;42.47
61710;BME280;73500;51.494;5.386;2024-03-02T08:49:04;99995.81;;;18.39;42.08
61710;BME280;73500;51.494;5.386;2024-03-02T08:51:29;99994.63;;;18.33;42.03
61710;BME280;73500;51.494;5.386;2024-03-02T08:53:56;100014.41;;;18.47;42.14
61710;BME280;73500;51.494;5.386;2024-03-02T08:56:23;100004.44;;;18.41;41.99
61710;BME280;73500;51.494;5.386;2024-03-02T08:58:49;100006.38;;;18.39;42.07
61710;BME280;73500;51.494;5.386;2024-03-02T09:01:15;99993.66;;;18.34;41.99
61710;BME280;73500;51.494;5.386;2024-03-02T09:03:41;100017.88;;;18.47;42.00
61710;BME280;73500;51.494;5.386;2024-03-02T09:06:09;100001.25;;;18.37;41.73
61710;BME280;73500;51.494;5.386;2024-03-02T09:08:35;100009.56;;;18.42;42.02
61710;BME280;73500;51.494;5.386;2024-03-02T09:11:02;100011.91;;;18.45;41.86
61710;BME280;73500;51.494;5.386;2024-03-02T09:13:27;99996.28;;;18.34;41.71
61710;BME280;73500;51.494;5.386;2024-03-02T09:15:53;99989.50;;;18.31;41.93
61710;BME280;73500;51.494;5.386;2024-03-02T09:18:18;99991.00;;;18.34;41.92
61710;BME280;73500;51.494;5.386;2024-03-02T09:20:43;100012.88;;;18.44;41.83
61710;BME280;73500;51.494;5.386;2024-03-02T09:23:08;99994.63;;;18.33;42.11
61710;BME280;73500;51.494;5.386;2024-03-02T09:25:34;100001.56;;;18.34;41.83
61710;BME280;73500;51.494;5.386;2024-03-02T09:27:59;100013.72;;;18.45;41.75
61710;BME280;73500;51.494;5.386;2024-03-02T09:30:24;99987.44;;;18.25;41.74
61710;BME280;73500;51.494;5.386;2024-03-02T09:32:50;99999.31;;;18.39;41.80
61710;BME280;73500;51.494;5.386;2024-03-02T09:35:15;100019.97;;;18.44;41.74
61710;BME280;73500;51.494;5.386;2024-03-02T09:37:40;100028.56;;;18.46;41.69
61710;BME280;73500;51.494;5.386;2024-03-02T09:40:06;99996.13;;;18.36;41.74
61710;BME280;73500;51.494;5.386;2024-03-02T09:42:32;99977.03;;;18.24;41.47
61710;BME280;73500;51.494;5.386;2024-03-02T09:44:57;100010.25;;;18.44;41.56
61710;BME280;73500;51.494;5.386;2024-03-02T09:47:23;100026.91;;;18.45;41.73
61710;BME280;73500;51.494;5.386;2024-03-02T09:49:49;100013.56;;;18.46;41.65
61710;BME280;73500;51.494;5.386;2024-03-02T09:52:14;100001.66;;;18.42;41.69
61710;BME280;73500;51.494;5.386;2024-03-02T09:54:39;99972.56;;;18.24;41.66
61710;BME280;73500;51.494;5.386;2024-03-02T09:57:05;99989.63;;;18.30;41.76
61710;BME280;73500;51.494;5.386;2024-03-02T09:59:30;100006.66;;;18.45;41.45
61710;BME280;73500;51.494;5.386;2024-03-02T10:02:00;100010.09;;;18.46;41.67
61710;BME280;73500;51.494;5.386;2024-03-02T10:04:27;99977.97;;;18.33;41.39
61710;BME280;73500;51.494;5.386;2024-03-02T10:09:34;100000.38;;;18.46;41.61
61710;BME280;73500;51.494;5.386;2024-03-02T10:12:07;99966.34;;;18.25;41.40
61710;BME280;73500;51.494;5.386;2024-03-02T10:14:33;99993.47;;;18.45;41.71
61710;BME280;73500;51.494;5.386;2024-03-02T10:17:06;99992.59;;;18.45;41.65
61710;BME280;73500;51.494;5.386;2024-03-02T10:19:32;99999.56;;;18.46;41.65
61710;BME280;73500;51.494;5.386;2024-03-02T10:22:06;99996.09;;;18.45;41.69
61710;BME280;73500;51.494;5.386;2024-03-02T10:24:43;99954.25;;;18.23;41.41
61710;BME280;73500;51.494;5.386;2024-03-02T10:27:19;99984.97;;;18.42;41.47
61710;BME280;73500;51.494;5.386;2024-03-02T10:29:47;99980.56;;;18.42;41.74
61710;BME280;73500;51.494;5.386;2024-03-02T10:32:13;99963.78;;;18.34;41.53
61710;BME280;73500;51.494;5.386;2024-03-02T10:34:44;99973.38;;;18.35;41.12
61710;BME280;73500;51.494;5.386;2024-03-02T10:37:11;99955.78;;;18.25;41.30
61710;BME280;73500;51.494;5.386;2024-03-02T10:39:37;99957.69;;;18.33;41.11
61710;BME280;73500;51.494;5.386;2024-03-02T10:42:05;99984.25;;;18.49;41.26
61710;BME280;73500;51.494;5.386;2024-03-02T10:44:31;99943.97;;;18.29;41.43
61710;BME280;73500;51.494;5.386;2024-03-02T10:47:00;99969.09;;;18.52;41.28
61710;BME280;73500;51.494;5.386;2024-03-02T10:49:26;99954.03;;;18.44;41.43
61710;BME280;73500;51.494;5.386;2024-03-02T10:51:51;99941.44;;;18.38;41.57
61710;BME280;73500;51.494;5.386;2024-03-02T10:54:17;99967.00;;;18.55;41.95
61710;BME280;73500;51.494;5.386;2024-03-02T10:56:44;99970.63;;;18.54;41.75
61710;BME280;73500;51.494;5.386;2024-03-02T10:59:28;99975.59;;;18.57;41.64
61710;BME280;73500;51.494;5.386;2024-03-02T11:01:59;99950.81;;;18.50;42.08
61710;BME280;73500;51.494;5.386;2024-03-02T11:04:28;99912.06;;;18.23;41.91
61710;BME280;73500;51.494;5.386;2024-03-02T11:07:08;99965.19;;;18.56;41.76
61710;BME280;73500;51.494;5.386;2024-03-02T11:09:38;99941.13;;;18.41;42.07
61710;BME280;73500;51.494;5.386;2024-03-02T11:14:31;99962.41;;;18.57;41.68
61710;BME280;73500;51.494;5.386;2024-03-02T11:17:00;99938.06;;;18.45;42.21
61710;BME280;73500;51.494;5.386;2024-03-02T11:19:27;99948.97;;;18.51;41.85
61710;BME280;73500;51.494;5.386;2024-03-02T11:21:53;99956.75;;;18.52;42.12
61710;BME280;73500;51.494;5.386;2024-03-02T11:26:49;99962.25;;;18.59;42.08
61710;BME280;73500;51.494;5.386;2024-03-02T11:32:01;99962.94;;;18.61;42.09
61710;BME280;73500;51.494;5.386;2024-03-02T11:34:34;99940.63;;;18.55;41.97
61710;BME280;73500;51.494;5.386;2024-03-02T11:37:03;99963.47;;;18.64;42.26
61710;BME280;73500;51.494;5.386;2024-03-02T11:39:29;99948.75;;;18.62;42.13
61710;BME280;73500;51.494;5.386;2024-03-02T11:41:56;99961.00;;;18.63;42.08
61710;BME280;73500;51.494;5.386;2024-03-02T11:44:22;99954.19;;;18.60;42.13
61710;BME280;73500;51.494;5.386;2024-03-02T11:47:15;99947.66;;;18.64;41.94
61710;BME280;73500;51.494;5.386;2024-03-02T11:49:50;99947.78;;;18.63;42.35
61710;BME280;73500;51.494;5.386;2024-03-02T11:52:20;99938.81;;;18.56;42.07
61710;BME280;73500;51.494;5.386;2024-03-02T11:54:47;99940.31;;;18.58;42.07
61710;BME280;73500;51.494;5.386;2024-03-02T11:57:20;99911.03;;;18.52;41.89
61710;BME280;73500;51.494;5.386;2024-03-02T11:59:47;99922.97;;;18.56;42.19
61710;BME280;73500;51.494;5.386;2024-03-02T12:02:19;99927.94;;;18.59;42.01
61710;BME280;73500;51.494;5.386;2024-03-02T12:04:46;99923.50;;;18.59;41.97
61710;BME280;73500;51.494;5.386;2024-03-02T12:07:19;99916.03;;;18.55;41.92
61710;BME280;73500;51.494;5.386;2024-03-02T12:09:45;99922.91;;;18.65;42.05
61710;BME280;73500;51.494;5.386;2024-03-02T12:12:11;99912.63;;;18.62;41.98
61710;BME280;73500;51.494;5.386;2024-03-02T12:14:38;99900.19;;;18.55;42.11
61710;BME280;73500;51.494;5.386;2024-03-02T12:17:05;99903.22;;;18.60;42.16
61710;BME280;73500;51.494;5.386;2024-03-02T12:19:32;99892.97;;;18.57;42.17
61710;BME280;73500;51.494;5.386;2024-03-02T12:21:57;99890.56;;;18.63;41.78
61710;BME280;73500;51.494;5.386;2024-03-02T12:24:24;99856.34;;;18.54;42.00
61710;BME280;73500;51.494;5.386;2024-03-02T12:26:50;99879.69;;;18.66;41.96
61710;BME280;73500;51.494;5.386;2024-03-02T12:29:18;99854.38;;;18.56;41.85
61710;BME280;73500;51.494;5.386;2024-03-02T12:31:44;99858.13;;;18.53;41.93
61710;BME280;73500;51.494;5.386;2024-03-02T12:34:14;99868.06;;;18.59;41.89
61710;BME280;73500;51.494;5.386;2024-03-02T12:36:40;99847.41;;;18.55;42.08
61710;BME280;73500;51.494;5.386;2024-03-02T12:39:07;99875.91;;;18.69;41.75
61710;BME280;73500;51.494;5.386;2024-03-02T12:41:36;99868.47;;;18.64;41.99
61710;BME280;73500;51.494;5.386;2024-03-02T12:44:01;99864.03;;;18.65;42.06
61710;BME280;73500;51.494;5.386;2024-03-02T12:46:27;99857.38;;;18.61;42.19
61710;BME280;73500;51.494;5.386;2024-03-02T12:48:52;99865.34;;;18.69;42.29
61710;BME280;73500;51.494;5.386;2024-03-02T12:51:17;99857.13;;;18.72;41.96
61710;BME280;73500;51.494;5.386;2024-03-02T12:53:43;99837.13;;;18.61;42.21
61710;BME280;73500;51.494;5.386;2024-03-02T12:56:08;99857.13;;;18.72;42.33
61710;BME280;73500;51.494;5.386;2024-03-02T12:58:39;99848.69;;;18.68;42.43
61710;BME280;73500;51.494;5.386;2024-03-02T13:01:07;99851.41;;;18.77;42.31
61710;BME280;73500;51.494;5.386;2024-03-02T13:03:41;99847.13;;;18.76;42.89
61710;BME280;73500;51.494;5.386;2024-03-02T13:06:07;99823.81;;;18.71;42.65
61710;BME280;73500;51.494;5.386;2024-03-02T13:08:33;99844.84;;;18.81;42.91